createdAt,value
2018-08-25T00:00:24.731Z,1.40
2018-08-25T00:02:55.093Z,1.80
2018-08-25T00:05:25.685Z,1.60
2018-08-25T00:07:56.577Z,1.50
2018-08-25T00:10:26.921Z,1.67
2018-08-25T00:12:57.536Z,1.43
2018-08-25T00:15:27.892Z,1.60
2018-08-25T00:17:58.244Z,1.50
2018-08-25T00:20:28.574Z,1.60
2018-08-25T00:22:58.914Z,1.40
2018-08-25T00:25:29.228Z,2.17
2018-08-25T00:27:59.805Z,1.60
2018-08-25T00:30:35.641Z,1.70
2018-08-25T00:33:06.088Z,1.67
2018-08-25T00:35:36.412Z,1.60
2018-08-25T00:38:06.981Z,1.27
2018-08-25T00:40:37.912Z,1.67
2018-08-25T00:43:08.304Z,1.70
2018-08-25T00:45:38.608Z,1.57
2018-08-25T00:48:09.024Z,1.67
2018-08-25T00:50:39.313Z,1.77
2018-08-25T00:53:09.924Z,1.40
2018-08-25T00:55:40.298Z,1.70
2018-08-25T00:58:10.880Z,1.30
2018-08-25T01:00:41.806Z,1.57
2018-08-25T01:03:12.128Z,1.33
2018-08-25T01:05:42.685Z,1.60
2018-08-25T01:08:13.010Z,1.60
2018-08-25T01:10:43.329Z,1.70
2018-08-25T01:13:13.681Z,1.50
2018-08-25T01:15:44.003Z,1.50
2018-08-25T01:18:14.782Z,1.83
2018-08-25T01:20:46.576Z,1.60
2018-08-25T01:23:17.473Z,1.80
2018-08-25T01:25:47.867Z,1.60
2018-08-25T01:28:18.546Z,1.80
2018-08-25T01:30:48.885Z,1.77
2018-08-25T01:33:19.245Z,1.50
2018-08-25T01:35:49.834Z,1.63
2018-08-25T01:38:20.204Z,1.70
2018-08-25T01:40:50.529Z,1.43
2018-08-25T01:43:20.891Z,1.30
2018-08-25T01:45:51.453Z,1.17
2018-08-25T01:48:21.793Z,1.50
2018-08-25T01:50:52.139Z,1.13
2018-08-25T01:53:22.469Z,1.20
2018-08-25T01:55:52.782Z,1.17
2018-08-25T01:58:23.112Z,1.13
2018-08-25T02:00:53.407Z,1.17
2018-08-25T02:03:23.738Z,1.13
2018-08-25T02:05:54.036Z,1.10
2018-08-25T02:08:24.352Z,1.20
2018-08-25T02:10:54.645Z,1.20
2018-08-25T02:13:24.988Z,0.97
2018-08-25T02:15:55.460Z,1.07
2018-08-25T02:18:26.104Z,1.07
2018-08-25T02:20:56.454Z,1.13
2018-08-25T02:23:26.802Z,1.13
2018-08-25T02:25:57.133Z,1.23
2018-08-25T02:28:27.490Z,0.97
2018-08-25T02:31:00.757Z,1.13
2018-08-25T02:33:31.112Z,1.10
2018-08-25T02:36:01.464Z,1.20
2018-08-25T02:38:31.849Z,1.27
2018-08-25T02:41:02.353Z,1.30
2018-08-25T02:43:32.700Z,1.20
2018-08-25T02:46:03.025Z,1.17
2018-08-25T02:48:33.368Z,0.90
2018-08-25T02:51:03.683Z,1.07
2018-08-25T02:53:34.033Z,0.83
2018-08-25T02:56:04.367Z,1.00
2018-08-25T02:58:34.719Z,1.03
2018-08-25T03:01:06.117Z,1.23
2018-08-25T03:03:36.438Z,0.90
2018-08-25T03:06:07.310Z,1.00
2018-08-25T03:08:37.904Z,1.10
2018-08-25T03:11:08.262Z,1.03
2018-08-25T03:13:38.597Z,0.80
2018-08-25T03:16:09.148Z,0.80
2018-08-25T03:18:39.722Z,0.90
2018-08-25T03:21:10.296Z,0.87
2018-08-25T03:23:40.605Z,1.10
2018-08-25T03:26:11.189Z,0.80
2018-08-25T03:28:41.740Z,0.90
2018-08-25T03:31:12.088Z,0.80
2018-08-25T03:33:42.632Z,1.00
2018-08-25T03:36:12.962Z,0.70
2018-08-25T03:38:43.271Z,0.80
2018-08-25T03:41:13.589Z,0.83
2018-08-25T03:43:43.884Z,0.90
2018-08-25T03:46:14.197Z,0.70
2018-08-25T03:48:44.534Z,0.90
2018-08-25T03:51:15.133Z,0.70
2018-08-25T03:53:45.427Z,0.83
2018-08-25T03:56:15.749Z,0.90
2018-08-25T03:58:46.061Z,1.13
2018-08-25T04:01:16.368Z,0.80
2018-08-25T04:03:46.685Z,0.83
2018-08-25T04:06:17.021Z,0.73
2018-08-25T04:08:47.573Z,0.90
2018-08-25T04:11:17.945Z,0.90
2018-08-25T04:13:48.240Z,0.93
2018-08-25T04:16:18.556Z,0.90
2018-08-25T04:18:48.897Z,1.00
2018-08-25T04:21:19.248Z,0.97
2018-08-25T04:23:49.834Z,0.80
2018-08-25T04:26:20.440Z,0.90
2018-08-25T04:28:50.777Z,0.77
2018-08-25T04:31:21.201Z,0.83
2018-08-25T04:33:51.584Z,0.80
2018-08-25T04:36:21.967Z,0.80
2018-08-25T04:38:52.326Z,0.80
2018-08-25T04:41:23.093Z,1.10
2018-08-25T04:43:53.560Z,0.90
2018-08-25T04:46:24.237Z,1.10
2018-08-25T04:48:54.658Z,0.80
2018-08-25T04:51:25.245Z,1.00
2018-08-25T04:53:55.693Z,1.00
2018-08-25T04:56:26.343Z,0.90
2018-08-25T04:58:56.688Z,0.90
2018-08-25T05:01:27.026Z,0.97
2018-08-25T05:04:04.218Z,1.00
2018-08-25T05:06:35.017Z,1.03
2018-08-25T05:09:09.158Z,1.40
2018-08-25T05:11:42.680Z,1.40
2018-08-25T05:14:13.113Z,1.40
2018-08-25T05:16:43.797Z,1.37
2018-08-25T05:19:14.610Z,1.60
2018-08-25T05:21:51.767Z,1.50
2018-08-25T05:24:22.301Z,1.40
2018-08-25T05:26:52.724Z,1.33
2018-08-25T05:29:23.129Z,1.37
2018-08-25T05:32:00.354Z,1.47
2018-08-25T05:34:31.104Z,1.60
2018-08-25T05:37:01.634Z,1.40
2018-08-25T05:39:32.076Z,1.70
2018-08-25T05:42:02.647Z,1.40
2018-08-25T05:44:33.027Z,1.80
2018-08-25T05:47:03.462Z,1.67
2018-08-25T05:49:33.849Z,1.50
2018-08-25T05:52:04.422Z,1.37
2018-08-25T05:54:35.045Z,1.67
2018-08-25T05:57:05.457Z,1.80
2018-08-25T05:59:35.813Z,1.50
2018-08-25T06:02:06.226Z,1.47
2018-08-25T06:04:36.642Z,1.57
2018-08-25T06:07:07.029Z,1.70
2018-08-25T06:09:37.461Z,1.67
2018-08-25T06:12:07.984Z,1.50
2018-08-25T06:14:38.454Z,1.60
2018-08-25T06:17:09.014Z,1.40
2018-08-25T06:19:39.540Z,1.33
2018-08-25T06:22:10.255Z,1.60
2018-08-25T06:24:40.913Z,1.47
2018-08-25T06:27:11.322Z,1.80
2018-08-25T06:29:42.196Z,1.63
2018-08-25T06:32:12.817Z,1.70
2018-08-25T06:34:43.470Z,1.60
2018-08-25T06:37:13.990Z,1.70
2018-08-25T06:39:44.448Z,1.60
2018-08-25T06:42:15.211Z,1.73
2018-08-25T06:44:45.814Z,1.80
2018-08-25T06:47:16.194Z,1.70
2018-08-25T06:49:46.605Z,1.50
2018-08-25T06:52:17.125Z,2.10
2018-08-25T06:54:47.549Z,1.53
2018-08-25T06:57:18.037Z,1.63
2018-08-25T06:59:48.533Z,1.90
2018-08-25T07:02:19.285Z,1.63
2018-08-25T07:04:49.868Z,2.13
2018-08-25T07:07:27.007Z,1.50
2018-08-25T07:09:58.022Z,1.60
2018-08-25T07:12:28.741Z,1.83
2018-08-25T07:14:59.962Z,1.67
2018-08-25T07:17:36.314Z,1.43
2018-08-25T07:20:07.155Z,1.80
2018-08-25T07:22:37.937Z,1.73
2018-08-25T07:25:09.235Z,1.83
2018-08-25T07:27:40.512Z,1.80
2018-08-25T07:30:11.690Z,1.40
2018-08-25T07:32:42.845Z,1.43
2018-08-25T07:35:13.705Z,1.80
2018-08-25T07:37:44.512Z,1.70
2018-08-25T07:40:15.498Z,2.03
2018-08-25T07:42:46.398Z,1.60
2018-08-25T07:45:17.471Z,1.90
2018-08-25T07:47:49.011Z,1.60
2018-08-25T07:50:20.049Z,1.80
2018-08-25T07:52:50.973Z,2.07
2018-08-25T07:55:22.017Z,1.97
2018-08-25T07:57:53.344Z,1.90
2018-08-25T08:00:24.533Z,1.87
2018-08-25T08:02:55.895Z,1.80
2018-08-25T08:05:27.433Z,1.77
2018-08-25T08:07:58.601Z,1.90
2018-08-25T08:10:29.590Z,1.70
2018-08-25T08:13:00.933Z,1.73
2018-08-25T08:15:31.907Z,2.10
2018-08-25T08:18:02.948Z,2.00
2018-08-25T08:20:33.774Z,1.73
2018-08-25T08:23:04.942Z,1.90
2018-08-25T08:25:36.902Z,2.07
2018-08-25T08:28:08.246Z,2.07
2018-08-25T08:30:39.635Z,1.73
2018-08-25T08:33:10.782Z,2.10
2018-08-25T08:35:41.566Z,1.80
2018-08-25T08:38:12.878Z,2.10
2018-08-25T08:40:44.341Z,1.80
2018-08-25T08:43:15.293Z,2.17
2018-08-25T08:45:46.132Z,1.93
2018-08-25T08:48:17.032Z,1.93
2018-08-25T08:50:48.281Z,1.80
2018-08-25T08:53:19.590Z,2.10
2018-08-25T08:55:50.618Z,2.17
2018-08-25T08:58:21.277Z,1.60
2018-08-25T09:00:52.143Z,2.10
2018-08-25T09:03:22.748Z,1.63
2018-08-25T09:05:53.632Z,1.57
2018-08-25T09:08:24.289Z,1.57
2018-08-25T09:10:54.701Z,1.80
2018-08-25T09:13:25.232Z,1.97
2018-08-25T09:15:55.913Z,1.70
2018-08-25T09:18:26.354Z,1.60
2018-08-25T09:20:57.177Z,1.70
2018-08-25T09:23:27.549Z,1.37
2018-08-25T09:26:07.426Z,1.90
2018-08-25T09:28:38.240Z,1.70
2018-08-25T09:31:09.109Z,1.30
2018-08-25T09:33:39.801Z,1.10
2018-08-25T09:36:10.874Z,1.47
2018-08-25T09:38:41.921Z,1.63
2018-08-25T09:41:12.798Z,1.63
2018-08-25T09:43:43.481Z,1.80
2018-08-25T09:46:14.460Z,1.10
2018-08-25T09:48:45.191Z,1.37
2018-08-25T09:51:15.768Z,1.40
2018-08-25T09:53:46.746Z,1.60
2018-08-25T09:56:17.216Z,1.40
2018-08-25T09:58:47.736Z,1.30
2018-08-25T10:01:23.661Z,1.40
2018-08-25T10:03:54.358Z,1.03
2018-08-25T10:06:25.069Z,1.30
2018-08-25T10:08:55.945Z,1.40
2018-08-25T10:11:26.840Z,1.20
2018-08-25T10:13:57.563Z,0.87
2018-08-25T10:16:28.271Z,1.10
2018-08-25T10:18:59.065Z,1.03
2018-08-25T10:21:29.842Z,1.10
2018-08-25T10:24:00.549Z,0.93
2018-08-25T10:26:31.249Z,0.90
2018-08-25T10:29:01.926Z,1.20
2018-08-25T10:31:33.047Z,1.00
2018-08-25T10:34:03.797Z,1.10
2018-08-25T10:36:34.868Z,1.10
2018-08-25T10:39:08.616Z,1.27
2018-08-25T10:41:39.735Z,1.17
2018-08-25T10:44:10.625Z,0.90
2018-08-25T10:46:41.524Z,1.23
2018-08-25T10:49:12.346Z,0.93
2018-08-25T10:51:43.282Z,1.00
2018-08-25T10:54:14.094Z,0.80
2018-08-25T10:56:45.087Z,0.80
2018-08-25T10:59:15.900Z,0.87
2018-08-25T11:01:46.737Z,0.93
2018-08-25T11:04:17.314Z,1.17
2018-08-25T11:06:47.873Z,0.67
2018-08-25T11:09:18.456Z,1.00
2018-08-25T11:11:48.771Z,0.90
2018-08-25T11:14:19.353Z,0.90
2018-08-25T11:16:49.925Z,0.77
2018-08-25T11:19:20.533Z,1.00
2018-08-25T11:21:50.847Z,0.73
2018-08-25T11:24:21.157Z,0.70
2018-08-25T11:26:51.473Z,0.80
2018-08-25T11:29:22.149Z,0.77
2018-08-25T11:31:52.563Z,0.70
2018-08-25T11:34:23.141Z,0.83
2018-08-25T11:36:53.986Z,0.50
2018-08-25T11:39:24.335Z,0.80
2018-08-25T11:41:54.887Z,0.73
2018-08-25T11:44:25.211Z,1.37
2018-08-25T11:46:55.823Z,0.83
2018-08-25T11:49:26.144Z,0.80
2018-08-25T11:51:56.454Z,0.83
2018-08-25T11:54:26.788Z,0.70
2018-08-25T11:56:57.106Z,0.77
2018-08-25T11:59:27.433Z,0.70
2018-08-25T12:01:57.769Z,0.70
2018-08-25T12:04:28.178Z,0.90
2018-08-25T12:06:58.729Z,0.90
2018-08-25T12:09:29.086Z,0.80
2018-08-25T12:11:59.828Z,0.63
2018-08-25T12:14:30.169Z,0.70
2018-08-25T12:17:00.482Z,0.90
2018-08-25T12:19:30.862Z,0.60
2018-08-25T12:22:01.513Z,0.70
2018-08-25T12:24:31.905Z,0.73
2018-08-25T12:27:03.002Z,0.80
2018-08-25T12:29:33.392Z,0.63
2018-08-25T12:32:03.753Z,1.00
2018-08-25T12:34:34.104Z,0.70
2018-08-25T12:37:04.425Z,0.50
2018-08-25T12:39:34.840Z,0.80
2018-08-25T12:42:05.322Z,0.60
2018-08-25T12:44:35.901Z,0.70
2018-08-25T12:47:06.397Z,0.63
2018-08-25T12:49:37.076Z,0.80
2018-08-25T12:52:07.616Z,0.60
2018-08-25T12:54:37.992Z,0.70
2018-08-25T12:57:08.376Z,0.60
2018-08-25T12:59:38.728Z,0.70
2018-08-25T13:02:09.072Z,0.60
2018-08-25T13:04:39.497Z,0.50
2018-08-25T13:07:10.424Z,0.50
2018-08-25T13:09:41.113Z,0.60
2018-08-25T13:12:11.888Z,0.50
2018-08-25T13:14:42.551Z,0.53
2018-08-25T13:17:13.084Z,0.60
2018-08-25T13:19:43.465Z,0.60
2018-08-25T13:22:13.825Z,0.50
2018-08-25T13:24:44.408Z,0.60
2018-08-25T13:27:14.781Z,0.70
2018-08-25T13:29:45.143Z,0.77
2018-08-25T13:32:15.748Z,0.60
2018-08-25T13:34:46.387Z,0.40
2018-08-25T13:37:16.708Z,0.70
2018-08-25T13:39:47.081Z,0.70
2018-08-25T13:42:17.592Z,0.47
2018-08-25T13:44:47.991Z,0.40
2018-08-25T13:47:18.320Z,0.63
2018-08-25T13:49:48.705Z,0.50
2018-08-25T13:52:19.060Z,0.40
2018-08-25T13:54:49.404Z,0.40
2018-08-25T13:57:19.748Z,0.50
2018-08-25T13:59:50.365Z,0.30
2018-08-25T14:02:20.697Z,0.43
2018-08-25T14:04:51.321Z,0.50
2018-08-25T14:07:21.636Z,0.50
2018-08-25T14:09:52.257Z,0.90
2018-08-25T14:12:22.844Z,0.57
2018-08-25T14:14:53.213Z,0.50
2018-08-25T14:17:23.540Z,0.50
2018-08-25T14:19:53.944Z,0.40
2018-08-25T14:22:24.260Z,0.50
2018-08-25T14:24:54.772Z,0.60
2018-08-25T14:27:25.360Z,0.60
2018-08-25T14:29:55.922Z,0.67
2018-08-25T14:32:26.240Z,0.50
2018-08-25T14:34:56.547Z,0.50
2018-08-25T14:37:27.119Z,0.57
2018-08-25T14:39:57.464Z,0.70
2018-08-25T14:42:27.777Z,0.60
2018-08-25T14:44:58.079Z,0.80
2018-08-25T14:47:28.804Z,1.20
2018-08-25T14:49:59.284Z,0.80
2018-08-25T14:52:29.862Z,0.57
2018-08-25T14:55:00.502Z,0.80
2018-08-25T14:57:30.959Z,0.47
2018-08-25T15:00:01.553Z,0.50
2018-08-25T15:02:31.897Z,0.50
2018-08-25T15:05:02.417Z,0.40
2018-08-25T15:07:32.754Z,0.40
2018-08-25T15:10:03.044Z,0.43
2018-08-25T15:12:33.753Z,0.40
2018-08-25T15:15:04.127Z,0.47
2018-08-25T15:17:34.449Z,0.47
2018-08-25T15:20:04.809Z,0.50
2018-08-25T15:22:35.189Z,0.13
2018-08-25T15:25:06.048Z,0.50
2018-08-25T15:27:36.355Z,0.60
2018-08-25T15:30:07.313Z,0.40
2018-08-25T15:32:37.826Z,0.30
2018-08-25T15:35:08.365Z,0.33
2018-08-25T15:37:38.689Z,0.40
2018-08-25T15:40:09.200Z,0.40
2018-08-25T15:42:39.701Z,0.30
2018-08-25T15:45:10.165Z,0.30
2018-08-25T15:47:40.646Z,0.40
2018-08-25T15:50:11.070Z,0.40
2018-08-25T15:52:41.469Z,0.43
2018-08-25T15:55:12.129Z,0.40
2018-08-25T15:57:42.703Z,0.50
2018-08-25T16:00:13.706Z,0.30
2018-08-25T16:02:44.097Z,0.20
2018-08-25T16:05:14.657Z,0.30
2018-08-25T16:07:45.289Z,0.40
2018-08-25T16:10:15.633Z,0.60
2018-08-25T16:12:45.985Z,0.47
2018-08-25T16:15:16.297Z,0.30
2018-08-25T16:17:46.637Z,0.50
2018-08-25T16:20:17.009Z,0.30
2018-08-25T16:22:47.372Z,0.40
2018-08-25T16:25:17.996Z,0.47
2018-08-25T16:27:48.367Z,0.30
2018-08-25T16:30:18.701Z,0.47
2018-08-25T16:32:49.326Z,0.50
2018-08-25T16:35:19.913Z,0.40
2018-08-25T16:37:50.285Z,0.50
2018-08-25T16:40:20.933Z,0.30
2018-08-25T16:42:51.280Z,0.60
2018-08-25T16:45:21.641Z,0.40
2018-08-25T16:47:52.017Z,0.43
2018-08-25T16:50:22.437Z,0.40
2018-08-25T16:52:52.883Z,0.50
2018-08-25T16:55:23.859Z,0.60
2018-08-25T16:57:54.357Z,0.53
2018-08-25T17:00:24.687Z,0.40
2018-08-25T17:02:55.441Z,0.60
2018-08-25T17:24:52.219Z,0.43
2018-08-25T17:27:23.894Z,0.50
2018-08-25T17:29:54.193Z,0.40
2018-08-25T17:32:24.522Z,0.40
2018-08-25T17:34:54.835Z,0.57
2018-08-25T17:37:28.088Z,0.40
2018-08-25T17:39:58.460Z,0.60
2018-08-25T17:42:29.044Z,0.50
2018-08-25T17:44:59.612Z,0.70
2018-08-25T17:47:30.098Z,0.40
2018-08-25T17:50:00.404Z,0.50
2018-08-25T17:52:30.705Z,0.50
2018-08-25T17:55:01.016Z,0.53
2018-08-25T17:57:31.715Z,0.53
2018-08-25T18:00:02.072Z,0.50
2018-08-25T18:02:32.365Z,0.47
2018-08-25T18:05:02.681Z,0.57
2018-08-25T18:07:32.976Z,0.50
2018-08-25T18:10:03.290Z,0.60
2018-08-25T18:12:33.569Z,0.40
2018-08-25T18:15:03.878Z,0.40
2018-08-25T18:17:34.243Z,0.50
2018-08-25T18:20:04.977Z,0.40
2018-08-25T18:22:35.297Z,0.47
2018-08-25T18:25:05.905Z,0.53
2018-08-25T18:27:36.485Z,0.50
2018-08-25T18:30:07.023Z,0.30
2018-08-25T18:32:37.495Z,0.37
2018-08-25T18:35:07.872Z,0.40
2018-08-25T18:37:38.201Z,0.47
2018-08-25T18:40:08.544Z,0.70
2018-08-25T18:42:38.857Z,0.60
2018-08-25T18:45:09.196Z,0.70
2018-08-25T18:47:40.073Z,0.97
2018-08-25T18:50:10.405Z,1.27
2018-08-25T18:52:40.972Z,1.70
2018-08-25T18:55:11.674Z,1.60
2018-08-25T18:57:42.349Z,1.43
2018-08-25T19:00:12.685Z,1.00
2018-08-25T19:02:43.000Z,0.87
2018-08-25T19:05:13.344Z,1.03
2018-08-25T19:07:43.661Z,1.00
2018-08-25T19:10:14.793Z,1.10
2018-08-25T19:12:45.133Z,1.10
2018-08-25T19:15:15.574Z,1.10
2018-08-25T19:17:45.916Z,1.20
2018-08-25T19:20:16.452Z,1.47
2018-08-25T19:22:46.774Z,1.03
2018-08-25T19:25:17.125Z,1.90
2018-08-25T19:27:47.493Z,2.30
2018-08-25T19:30:17.879Z,2.57
2018-08-25T19:32:48.293Z,2.17
2018-08-25T19:35:18.927Z,1.27
2018-08-25T19:37:49.315Z,0.80
2018-08-25T19:40:19.697Z,0.70
2018-08-25T19:42:50.324Z,0.60
2018-08-25T19:45:20.660Z,0.80
2018-08-25T19:47:51.016Z,0.60
2018-08-25T19:50:21.357Z,0.50
2018-08-25T19:52:51.714Z,0.57
2018-08-25T19:55:22.163Z,0.60
2018-08-25T19:57:52.482Z,0.63
2018-08-25T20:00:22.901Z,0.57
2018-08-25T20:02:53.612Z,0.60
2018-08-25T20:05:24.284Z,0.60
2018-08-25T20:07:55.029Z,0.40
2018-08-25T20:10:25.380Z,0.43
2018-08-25T20:12:55.952Z,0.67
2018-08-25T20:15:26.415Z,0.70
2018-08-25T20:17:57.017Z,0.80
2018-08-25T20:20:28.003Z,0.50
2018-08-25T20:22:58.522Z,0.90
2018-08-25T20:25:28.877Z,0.70
2018-08-25T20:27:59.253Z,0.47
2018-08-25T20:30:29.617Z,0.50
2018-08-25T20:32:59.960Z,0.80
2018-08-25T20:35:30.352Z,0.80
2018-08-25T20:38:00.901Z,1.07
2018-08-25T20:40:31.437Z,1.20
2018-08-25T20:43:02.048Z,0.83
2018-08-25T20:45:32.428Z,0.70
2018-08-25T20:48:02.941Z,0.80
2018-08-25T20:50:33.280Z,0.70
2018-08-25T20:53:03.639Z,0.80
2018-08-25T20:55:35.091Z,0.67
2018-08-25T20:58:05.876Z,0.70
2018-08-25T21:00:36.233Z,0.60
2018-08-25T21:03:06.616Z,0.77
2018-08-25T21:05:36.989Z,0.60
2018-08-25T21:08:07.329Z,0.70
2018-08-25T21:10:37.956Z,0.80
2018-08-25T21:13:08.765Z,0.70
2018-08-25T21:15:39.130Z,0.70
2018-08-25T21:18:09.461Z,1.10
2018-08-25T21:20:40.065Z,1.00
2018-08-25T21:23:10.427Z,1.00
2018-08-25T21:25:40.777Z,0.90
2018-08-25T21:28:11.069Z,1.00
2018-08-25T21:30:41.397Z,1.03
2018-08-25T21:33:11.980Z,0.70
2018-08-25T21:35:42.297Z,0.90
2018-08-25T21:38:12.601Z,0.87
2018-08-25T21:40:42.951Z,1.00
2018-08-25T21:43:13.696Z,0.90
2018-08-25T21:45:44.052Z,0.90
2018-08-25T21:48:14.624Z,0.87
2018-08-25T21:50:44.977Z,0.73
2018-08-25T21:53:15.305Z,0.60
2018-08-25T21:55:45.671Z,0.90
2018-08-25T21:58:15.968Z,0.80
2018-08-25T22:00:51.916Z,0.80
2018-08-25T22:03:22.232Z,0.63
2018-08-25T22:05:53.468Z,0.70
2018-08-25T22:08:24.645Z,0.73
2018-08-25T22:10:55.296Z,0.70
2018-08-25T22:13:27.870Z,0.60
2018-08-25T22:15:58.270Z,0.90
2018-08-25T22:18:28.617Z,0.70
2018-08-25T22:20:59.035Z,0.67
2018-08-25T22:23:29.341Z,0.77
2018-08-25T22:25:59.954Z,1.00
2018-08-25T22:28:30.248Z,1.07
2018-08-25T22:31:00.615Z,0.93
2018-08-25T22:33:31.029Z,1.00
2018-08-25T22:36:01.599Z,0.90
2018-08-25T22:38:31.929Z,0.80
2018-08-25T22:41:02.300Z,0.80
2018-08-25T22:43:32.628Z,0.90
2018-08-25T22:46:03.007Z,0.90
2018-08-25T22:48:33.397Z,0.80
2018-08-25T22:51:03.755Z,0.50
2018-08-25T22:53:34.058Z,0.70
2018-08-25T22:56:05.187Z,0.60
2018-08-25T22:58:35.866Z,0.50
2018-08-25T23:01:06.755Z,0.60
2018-08-25T23:03:37.444Z,0.70
2018-08-25T23:06:07.977Z,0.60
2018-08-25T23:08:38.812Z,0.73
2018-08-25T23:11:09.185Z,0.60
2018-08-25T23:13:41.467Z,0.50
2018-08-25T23:16:11.839Z,0.43
2018-08-25T23:18:42.197Z,0.63
2018-08-25T23:21:12.547Z,0.50
2018-08-25T23:23:43.190Z,0.50
2018-08-25T23:26:13.652Z,0.53
2018-08-25T23:28:44.016Z,0.60
2018-08-25T23:31:14.363Z,0.50
2018-08-25T23:33:51.401Z,0.43
2018-08-25T23:36:21.983Z,0.60
2018-08-25T23:38:52.361Z,0.80
2018-08-25T23:41:22.916Z,0.63
2018-08-25T23:43:53.248Z,0.50
2018-08-25T23:46:23.602Z,0.50
2018-08-25T23:48:53.933Z,0.50
2018-08-25T23:51:24.304Z,0.30
2018-08-25T23:53:54.920Z,0.40
2018-08-25T23:56:25.280Z,0.53
2018-08-25T23:58:55.633Z,0.30
